Ashley, Wisconsin
Current Conditions -  °F | °C
As of 3:50 PM on Saturday 20 Dec 2014 (Local Time) from KCWA Reporting Station
Overcast Overcast  
Wind Chill: 23°   Ceiling: 1800
Heat Index: 28°   Visibility: 7mi
Dew Point: 27°   Wind: 5mph
Humidity: 93%   Direction: 160°SSE
Pressure: 30.18"   Gusts: NA
Location:  44.7605°N, 89.5918°W
Report Text: KCWA 202150Z 16004KT 7SM OVC018 M02/M03 A3018
Loading
Personal Weather Stations






























Interactive Weather Map New forecast layout! Learn more

10-Day Weather Forecast

Advertisements
Track Severe Weather on mobile